MMDO/DGO METAR and TAF weather

Enter ICAO airport designator
Station Type Date Time Source
MMDO METAR 2019/02/16 16:53 UTC NOAA

MMDO 161653Z 14004KT 12SM SKC 22/04 A3014 RMK HZY


Station Type Date Time Source
MMDO Decoded METAR 2019/02/16 16:53 UTC NOAA

Durango Airport, Mexico (MMDO) 24-08N 104-32W
Feb 16, 2019 - 11:53 AM EST / 2019.02.16 1653 UTC
Wind: from the SE (140 degrees) at 5 MPH (4 KT):0
Visibility: 12 mile(s):0
Sky conditions: clear
Temperature: 71 F (22 C)
Dew Point: 39 F (4 C)
Relative Humidity: 30%
Pressure (altimeter): 30.14 in. Hg (1020 hPa)
ob: MMDO 161653Z 14004KT 12SM SKC 22/04 A3014 RMK HZY
cycle: 17

Station Type Date Time Source
MMDO TAF 2019/02/16 18:03 UTC NOAA

TAF MMDO 161701Z 1618/1718 23015KT P6SM SKC
BECMG 1702/1703 25006KT
FM171700 24015KT P6SM SKC


Example: see airport list